sensor_id;sensor_type;location;lat;lon;timestamp;P1;durP1;ratioP1;P2;durP2;ratioP2
40322;SDS011;26030;51.164;17.100;2022-09-02T00:02:49;1.70;;;1.10;;
40322;SDS011;26030;51.164;17.100;2022-09-02T00:07:55;2.30;;;1.10;;
40322;SDS011;26030;51.164;17.100;2022-09-02T00:12:59;2.70;;;1.40;;
40322;SDS011;26030;51.164;17.100;2022-09-02T00:18:03;2.30;;;1.30;;
40322;SDS011;26030;51.164;17.100;2022-09-02T00:23:17;3.40;;;1.20;;
40322;SDS011;26030;51.164;17.100;2022-09-02T00:28:21;2.80;;;1.40;;
40322;SDS011;26030;51.164;17.100;2022-09-02T00:33:26;2.30;;;1.30;;
40322;SDS011;26030;51.164;17.100;2022-09-02T00:38:31;2.10;;;1.50;;
40322;SDS011;26030;51.164;17.100;2022-09-02T00:43:44;2.90;;;1.20;;
40322;SDS011;26030;51.164;17.100;2022-09-02T00:48:56;2.20;;;1.30;;
40322;SDS011;26030;51.164;17.100;2022-09-02T00:54:02;2.50;;;1.30;;
40322;SDS011;26030;51.164;17.100;2022-09-02T00:59:07;2.30;;;1.40;;
40322;SDS011;26030;51.164;17.100;2022-09-02T01:04:12;2.20;;;1.20;;
40322;SDS011;26030;51.164;17.100;2022-09-02T01:09:16;1.80;;;1.20;;
40322;SDS011;26030;51.164;17.100;2022-09-02T01:14:20;2.20;;;1.30;;
40322;SDS011;26030;51.164;17.100;2022-09-02T01:19:31;2.00;;;1.30;;
40322;SDS011;26030;51.164;17.100;2022-09-02T01:24:35;2.60;;;1.50;;
40322;SDS011;26030;51.164;17.100;2022-09-02T01:29:38;2.80;;;1.40;;
40322;SDS011;26030;51.164;17.100;2022-09-02T01:34:42;2.30;;;1.30;;
40322;SDS011;26030;51.164;17.100;2022-09-02T01:39:47;2.20;;;1.40;;
40322;SDS011;26030;51.164;17.100;2022-09-02T01:44:52;3.00;;;1.40;;
40322;SDS011;26030;51.164;17.100;2022-09-02T01:49:57;2.10;;;1.40;;
40322;SDS011;26030;51.164;17.100;2022-09-02T01:55:04;2.10;;;1.40;;
40322;SDS011;26030;51.164;17.100;2022-09-02T02:00:10;2.20;;;1.30;;
40322;SDS011;26030;51.164;17.100;2022-09-02T02:05:15;1.90;;;1.20;;
40322;SDS011;26030;51.164;17.100;2022-09-02T02:10:20;2.00;;;1.40;;
40322;SDS011;26030;51.164;17.100;2022-09-02T02:15:24;2.40;;;1.30;;
40322;SDS011;26030;51.164;17.100;2022-09-02T02:20:27;2.80;;;1.40;;
40322;SDS011;26030;51.164;17.100;2022-09-02T02:25:31;1.90;;;1.10;;
40322;SDS011;26030;51.164;17.100;2022-09-02T02:30:35;4.90;;;1.40;;
40322;SDS011;26030;51.164;17.100;2022-09-02T02:35:40;1.80;;;1.20;;
40322;SDS011;26030;51.164;17.100;2022-09-02T02:40:44;2.80;;;1.40;;
40322;SDS011;26030;51.164;17.100;2022-09-02T02:45:48;3.20;;;1.30;;
40322;SDS011;26030;51.164;17.100;2022-09-02T02:50:54;2.40;;;1.20;;
40322;SDS011;26030;51.164;17.100;2022-09-02T02:55:58;2.60;;;1.30;;
40322;SDS011;26030;51.164;17.100;2022-09-02T03:01:02;2.00;;;1.30;;
40322;SDS011;26030;51.164;17.100;2022-09-02T03:06:06;3.20;;;1.20;;
40322;SDS011;26030;51.164;17.100;2022-09-02T03:11:10;2.40;;;1.20;;
40322;SDS011;26030;51.164;17.100;2022-09-02T03:16:15;2.10;;;1.00;;
40322;SDS011;26030;51.164;17.100;2022-09-02T03:21:21;2.40;;;1.20;;
40322;SDS011;26030;51.164;17.100;2022-09-02T03:26:25;1.90;;;1.20;;
40322;SDS011;26030;51.164;17.100;2022-09-02T03:31:29;2.40;;;1.30;;
40322;SDS011;26030;51.164;17.100;2022-09-02T03:36:37;2.70;;;1.50;;
40322;SDS011;26030;51.164;17.100;2022-09-02T03:41:42;2.10;;;1.20;;
40322;SDS011;26030;51.164;17.100;2022-09-02T03:46:46;2.30;;;1.40;;
40322;SDS011;26030;51.164;17.100;2022-09-02T03:51:50;1.90;;;1.20;;
40322;SDS011;26030;51.164;17.100;2022-09-02T03:56:54;2.20;;;1.20;;
40322;SDS011;26030;51.164;17.100;2022-09-02T04:02:00;2.20;;;1.40;;
40322;SDS011;26030;51.164;17.100;2022-09-02T04:07:05;2.10;;;1.30;;
40322;SDS011;26030;51.164;17.100;2022-09-02T04:12:10;2.20;;;1.10;;
40322;SDS011;26030;51.164;17.100;2022-09-02T04:17:14;2.70;;;1.50;;
40322;SDS011;26030;51.164;17.100;2022-09-02T04:22:17;2.20;;;1.20;;
40322;SDS011;26030;51.164;17.100;2022-09-02T04:27:21;2.50;;;1.40;;
40322;SDS011;26030;51.164;17.100;2022-09-02T04:32:25;1.80;;;1.20;;
40322;SDS011;26030;51.164;17.100;2022-09-02T04:37:29;2.50;;;1.20;;
40322;SDS011;26030;51.164;17.100;2022-09-02T04:42:33;2.90;;;1.50;;
40322;SDS011;26030;51.164;17.100;2022-09-02T04:47:38;1.90;;;1.20;;
40322;SDS011;26030;51.164;17.100;2022-09-02T04:52:42;2.40;;;1.30;;
40322;SDS011;26030;51.164;17.100;2022-09-02T04:57:47;2.60;;;1.30;;
40322;SDS011;26030;51.164;17.100;2022-09-02T05:02:52;2.10;;;1.20;;
40322;SDS011;26030;51.164;17.100;2022-09-02T05:07:58;2.20;;;1.20;;
40322;SDS011;26030;51.164;17.100;2022-09-02T05:13:04;3.20;;;1.40;;
40322;SDS011;26030;51.164;17.100;2022-09-02T05:18:08;1.90;;;1.10;;
40322;SDS011;26030;51.164;17.100;2022-09-02T05:23:14;2.50;;;1.30;;
40322;SDS011;26030;51.164;17.100;2022-09-02T05:28:18;2.30;;;1.10;;
40322;SDS011;26030;51.164;17.100;2022-09-02T05:33:22;2.50;;;1.20;;
40322;SDS011;26030;51.164;17.100;2022-09-02T05:38:30;2.00;;;1.20;;
40322;SDS011;26030;51.164;17.100;2022-09-02T05:43:37;2.40;;;1.20;;
40322;SDS011;26030;51.164;17.100;2022-09-02T05:48:41;1.70;;;1.00;;
40322;SDS011;26030;51.164;17.100;2022-09-02T05:54:04;3.00;;;1.20;;
40322;SDS011;26030;51.164;17.100;2022-09-02T05:59:08;2.30;;;1.40;;
40322;SDS011;26030;51.164;17.100;2022-09-02T06:04:13;2.50;;;1.20;;
40322;SDS011;26030;51.164;17.100;2022-09-02T06:09:20;2.10;;;1.20;;
40322;SDS011;26030;51.164;17.100;2022-09-02T06:14:25;1.90;;;1.20;;
40322;SDS011;26030;51.164;17.100;2022-09-02T06:19:30;2.50;;;1.40;;
40322;SDS011;26030;51.164;17.100;2022-09-02T06:24:35;2.10;;;1.20;;
40322;SDS011;26030;51.164;17.100;2022-09-02T06:29:43;2.10;;;1.30;;
40322;SDS011;26030;51.164;17.100;2022-09-02T06:34:50;3.20;;;1.30;;
40322;SDS011;26030;51.164;17.100;2022-09-02T06:39:54;2.30;;;1.40;;
40322;SDS011;26030;51.164;17.100;2022-09-02T06:45:00;1.70;;;1.10;;
40322;SDS011;26030;51.164;17.100;2022-09-02T06:50:07;1.90;;;1.10;;
40322;SDS011;26030;51.164;17.100;2022-09-02T06:55:12;2.20;;;1.20;;
40322;SDS011;26030;51.164;17.100;2022-09-02T07:00:16;1.90;;;1.20;;
40322;SDS011;26030;51.164;17.100;2022-09-02T07:05:20;2.20;;;1.20;;
40322;SDS011;26030;51.164;17.100;2022-09-02T07:10:24;2.40;;;1.30;;
40322;SDS011;26030;51.164;17.100;2022-09-02T07:15:28;2.40;;;1.50;;
40322;SDS011;26030;51.164;17.100;2022-09-02T07:20:32;2.40;;;1.40;;
40322;SDS011;26030;51.164;17.100;2022-09-02T07:25:38;1.60;;;1.00;;
40322;SDS011;26030;51.164;17.100;2022-09-02T07:30:44;2.40;;;1.50;;
40322;SDS011;26030;51.164;17.100;2022-09-02T07:35:50;2.30;;;1.40;;
40322;SDS011;26030;51.164;17.100;2022-09-02T07:40:56;1.90;;;1.40;;
40322;SDS011;26030;51.164;17.100;2022-09-02T07:46:04;2.00;;;1.30;;
40322;SDS011;26030;51.164;17.100;2022-09-02T07:51:08;1.40;;;1.00;;
40322;SDS011;26030;51.164;17.100;2022-09-02T07:56:13;1.90;;;1.10;;
40322;SDS011;26030;51.164;17.100;2022-09-02T08:01:18;2.70;;;1.40;;
40322;SDS011;26030;51.164;17.100;2022-09-02T08:06:27;2.30;;;1.20;;
40322;SDS011;26030;51.164;17.100;2022-09-02T08:11:38;1.40;;;1.10;;
40322;SDS011;26030;51.164;17.100;2022-09-02T08:16:42;1.80;;;1.20;;
40322;SDS011;26030;51.164;17.100;2022-09-02T08:21:46;2.30;;;1.10;;
40322;SDS011;26030;51.164;17.100;2022-09-02T08:26:50;1.90;;;1.10;;
40322;SDS011;26030;51.164;17.100;2022-09-02T08:31:54;1.50;;;1.00;;
40322;SDS011;26030;51.164;17.100;2022-09-02T08:36:57;2.30;;;1.50;;
40322;SDS011;26030;51.164;17.100;2022-09-02T08:42:11;1.80;;;1.20;;
40322;SDS011;26030;51.164;17.100;2022-09-02T08:47:21;1.60;;;1.20;;
40322;SDS011;26030;51.164;17.100;2022-09-02T08:52:39;1.70;;;1.10;;
40322;SDS011;26030;51.164;17.100;2022-09-02T08:57:44;2.00;;;1.10;;
40322;SDS011;26030;51.164;17.100;2022-09-02T09:03:28;1.80;;;1.20;;
40322;SDS011;26030;51.164;17.100;2022-09-02T09:14:41;1.90;;;1.30;;
40322;SDS011;26030;51.164;17.100;2022-09-02T09:24:49;1.50;;;1.00;;
40322;SDS011;26030;51.164;17.100;2022-09-02T09:29:53;2.10;;;1.30;;
40322;SDS011;26030;51.164;17.100;2022-09-02T09:35:00;1.70;;;1.20;;
40322;SDS011;26030;51.164;17.100;2022-09-02T09:40:31;1.80;;;1.20;;
40322;SDS011;26030;51.164;17.100;2022-09-02T09:51:26;1.50;;;0.90;;
40322;SDS011;26030;51.164;17.100;2022-09-02T09:56:32;1.70;;;1.20;;
40322;SDS011;26030;51.164;17.100;2022-09-02T10:01:48;1.90;;;1.10;;
40322;SDS011;26030;51.164;17.100;2022-09-02T10:06:53;1.90;;;1.30;;
40322;SDS011;26030;51.164;17.100;2022-09-02T10:12:00;1.70;;;1.10;;
40322;SDS011;26030;51.164;17.100;2022-09-02T10:28:09;1.70;;;1.00;;
40322;SDS011;26030;51.164;17.100;2022-09-02T10:38:46;2.20;;;1.20;;
40322;SDS011;26030;51.164;17.100;2022-09-02T10:44:04;2.10;;;1.00;;
40322;SDS011;26030;51.164;17.100;2022-09-02T10:54:47;1.40;;;1.00;;
40322;SDS011;26030;51.164;17.100;2022-09-02T11:00:11;2.00;;;1.30;;
40322;SDS011;26030;51.164;17.100;2022-09-02T11:16:32;1.80;;;1.20;;
40322;SDS011;26030;51.164;17.100;2022-09-02T11:27:12;1.50;;;1.00;;
40322;SDS011;26030;51.164;17.100;2022-09-02T11:33:03;1.80;;;0.90;;
40322;SDS011;26030;51.164;17.100;2022-09-02T11:38:34;2.00;;;1.00;;
40322;SDS011;26030;51.164;17.100;2022-09-02T11:54:41;1.80;;;1.10;;
40322;SDS011;26030;51.164;17.100;2022-09-02T12:21:24;1.60;;;1.00;;
40322;SDS011;26030;51.164;17.100;2022-09-02T12:31:44;1.40;;;0.90;;
40322;SDS011;26030;51.164;17.100;2022-09-02T12:36:57;1.40;;;0.90;;
40322;SDS011;26030;51.164;17.100;2022-09-02T12:42:24;1.40;;;0.90;;
40322;SDS011;26030;51.164;17.100;2022-09-02T13:20:16;1.60;;;0.90;;
40322;SDS011;26030;51.164;17.100;2022-09-02T13:31:09;1.70;;;1.00;;
40322;SDS011;26030;51.164;17.100;2022-09-02T13:36:30;1.40;;;0.90;;
40322;SDS011;26030;51.164;17.100;2022-09-02T13:41:54;1.90;;;0.90;;
40322;SDS011;26030;51.164;17.100;2022-09-02T13:47:02;1.50;;;0.90;;
40322;SDS011;26030;51.164;17.100;2022-09-02T13:52:22;1.60;;;1.10;;
40322;SDS011;26030;51.164;17.100;2022-09-02T13:58:18;2.40;;;1.10;;
40322;SDS011;26030;51.164;17.100;2022-09-02T14:03:28;1.20;;;0.90;;
40322;SDS011;26030;51.164;17.100;2022-09-02T14:08:39;1.80;;;1.10;;
40322;SDS011;26030;51.164;17.100;2022-09-02T14:13:50;1.70;;;1.10;;
40322;SDS011;26030;51.164;17.100;2022-09-02T14:19:24;1.20;;;0.90;;
40322;SDS011;26030;51.164;17.100;2022-09-02T14:24:38;1.50;;;1.00;;
40322;SDS011;26030;51.164;17.100;2022-09-02T14:30:07;1.70;;;0.80;;
40322;SDS011;26030;51.164;17.100;2022-09-02T14:40:36;1.80;;;1.00;;
40322;SDS011;26030;51.164;17.100;2022-09-02T14:45:46;1.50;;;0.90;;
40322;SDS011;26030;51.164;17.100;2022-09-02T14:51:01;1.70;;;1.00;;
40322;SDS011;26030;51.164;17.100;2022-09-02T14:56:05;2.50;;;0.90;;
40322;SDS011;26030;51.164;17.100;2022-09-02T15:01:14;1.60;;;1.00;;
40322;SDS011;26030;51.164;17.100;2022-09-02T15:06:24;1.80;;;1.00;;
40322;SDS011;26030;51.164;17.100;2022-09-02T15:11:36;1.20;;;0.80;;
40322;SDS011;26030;51.164;17.100;2022-09-02T15:16:42;1.30;;;0.80;;
40322;SDS011;26030;51.164;17.100;2022-09-02T15:21:46;1.70;;;0.90;;
40322;SDS011;26030;51.164;17.100;2022-09-02T15:26:52;1.50;;;0.90;;
40322;SDS011;26030;51.164;17.100;2022-09-02T15:31:57;1.70;;;1.10;;
40322;SDS011;26030;51.164;17.100;2022-09-02T15:37:15;1.80;;;1.20;;
40322;SDS011;26030;51.164;17.100;2022-09-02T15:42:35;2.10;;;1.20;;
40322;SDS011;26030;51.164;17.100;2022-09-02T15:47:39;1.80;;;1.00;;
40322;SDS011;26030;51.164;17.100;2022-09-02T15:52:43;2.20;;;1.10;;
40322;SDS011;26030;51.164;17.100;2022-09-02T15:57:48;1.50;;;1.00;;
40322;SDS011;26030;51.164;17.100;2022-09-02T16:02:52;1.90;;;0.90;;
40322;SDS011;26030;51.164;17.100;2022-09-02T16:07:59;1.80;;;1.00;;
40322;SDS011;26030;51.164;17.100;2022-09-02T16:13:07;1.40;;;0.90;;
40322;SDS011;26030;51.164;17.100;2022-09-02T16:18:24;2.70;;;1.10;;
40322;SDS011;26030;51.164;17.100;2022-09-02T16:23:28;2.30;;;1.00;;
40322;SDS011;26030;51.164;17.100;2022-09-02T16:28:36;6.10;;;1.10;;
40322;SDS011;26030;51.164;17.100;2022-09-02T16:33:40;1.80;;;1.10;;
40322;SDS011;26030;51.164;17.100;2022-09-02T16:38:45;2.80;;;0.90;;
40322;SDS011;26030;51.164;17.100;2022-09-02T16:43:56;1.70;;;1.10;;
40322;SDS011;26030;51.164;17.100;2022-09-02T16:49:00;2.40;;;1.30;;
40322;SDS011;26030;51.164;17.100;2022-09-02T16:54:06;2.20;;;1.50;;
40322;SDS011;26030;51.164;17.100;2022-09-02T16:59:19;3.20;;;1.60;;
40322;SDS011;26030;51.164;17.100;2022-09-02T17:04:23;3.10;;;2.00;;
40322;SDS011;26030;51.164;17.100;2022-09-02T17:09:27;4.10;;;2.20;;
40322;SDS011;26030;51.164;17.100;2022-09-02T17:14:33;3.20;;;1.80;;
40322;SDS011;26030;51.164;17.100;2022-09-02T17:19:37;3.10;;;2.00;;
40322;SDS011;26030;51.164;17.100;2022-09-02T17:24:42;4.60;;;2.10;;
40322;SDS011;26030;51.164;17.100;2022-09-02T17:29:45;2.80;;;1.60;;
40322;SDS011;26030;51.164;17.100;2022-09-02T17:34:53;3.10;;;1.60;;
40322;SDS011;26030;51.164;17.100;2022-09-02T17:40:01;3.90;;;2.00;;
40322;SDS011;26030;51.164;17.100;2022-09-02T17:45:16;3.20;;;1.70;;
40322;SDS011;26030;51.164;17.100;2022-09-02T17:50:19;2.80;;;1.60;;
40322;SDS011;26030;51.164;17.100;2022-09-02T17:55:31;2.90;;;1.90;;
40322;SDS011;26030;51.164;17.100;2022-09-02T18:00:39;2.80;;;1.70;;
40322;SDS011;26030;51.164;17.100;2022-09-02T18:06:04;2.70;;;1.60;;
40322;SDS011;26030;51.164;17.100;2022-09-02T18:11:14;2.80;;;1.70;;
40322;SDS011;26030;51.164;17.100;2022-09-02T18:22:07;2.50;;;1.60;;
40322;SDS011;26030;51.164;17.100;2022-09-02T18:49:50;3.20;;;1.50;;
40322;SDS011;26030;51.164;17.100;2022-09-02T18:55:04;2.50;;;1.50;;
40322;SDS011;26030;51.164;17.100;2022-09-02T19:00:13;2.10;;;1.40;;
40322;SDS011;26030;51.164;17.100;2022-09-02T19:05:24;4.10;;;1.60;;
40322;SDS011;26030;51.164;17.100;2022-09-02T19:10:30;2.80;;;1.60;;
40322;SDS011;26030;51.164;17.100;2022-09-02T19:15:40;2.20;;;1.50;;
40322;SDS011;26030;51.164;17.100;2022-09-02T19:20:48;3.40;;;1.50;;
40322;SDS011;26030;51.164;17.100;2022-09-02T19:25:58;2.80;;;1.60;;
40322;SDS011;26030;51.164;17.100;2022-09-02T19:31:09;2.80;;;1.40;;
40322;SDS011;26030;51.164;17.100;2022-09-02T19:36:22;2.30;;;1.40;;
40322;SDS011;26030;51.164;17.100;2022-09-02T19:41:29;2.30;;;1.60;;
40322;SDS011;26030;51.164;17.100;2022-09-02T19:46:33;2.40;;;1.50;;
40322;SDS011;26030;51.164;17.100;2022-09-02T19:52:00;2.70;;;1.70;;
40322;SDS011;26030;51.164;17.100;2022-09-02T19:57:08;4.30;;;1.70;;
40322;SDS011;26030;51.164;17.100;2022-09-02T20:02:18;2.50;;;1.70;;
40322;SDS011;26030;51.164;17.100;2022-09-02T20:07:25;2.30;;;1.50;;
40322;SDS011;26030;51.164;17.100;2022-09-02T20:12:30;2.30;;;1.30;;
40322;SDS011;26030;51.164;17.100;2022-09-02T20:17:36;3.20;;;1.80;;
40322;SDS011;26030;51.164;17.100;2022-09-02T20:22:43;2.60;;;1.60;;
40322;SDS011;26030;51.164;17.100;2022-09-02T20:28:32;2.40;;;1.50;;
40322;SDS011;26030;51.164;17.100;2022-09-02T21:02:24;2.60;;;1.60;;
40322;SDS011;26030;51.164;17.100;2022-09-02T21:07:43;2.30;;;1.30;;
40322;SDS011;26030;51.164;17.100;2022-09-02T21:12:56;2.50;;;1.40;;
40322;SDS011;26030;51.164;17.100;2022-09-02T21:24:18;2.80;;;1.60;;
40322;SDS011;26030;51.164;17.100;2022-09-02T21:30:07;2.00;;;1.40;;
40322;SDS011;26030;51.164;17.100;2022-09-02T21:35:20;2.40;;;1.50;;
40322;SDS011;26030;51.164;17.100;2022-09-02T21:46:40;2.50;;;1.40;;
40322;SDS011;26030;51.164;17.100;2022-09-02T21:51:56;2.10;;;1.50;;
40322;SDS011;26030;51.164;17.100;2022-09-02T21:57:34;2.00;;;1.30;;
40322;SDS011;26030;51.164;17.100;2022-09-02T22:03:28;3.10;;;1.40;;
40322;SDS011;26030;51.164;17.100;2022-09-02T22:09:05;2.00;;;1.20;;
40322;SDS011;26030;51.164;17.100;2022-09-02T22:20:16;3.80;;;1.40;;
40322;SDS011;26030;51.164;17.100;2022-09-02T22:25:24;2.40;;;1.30;;
40322;SDS011;26030;51.164;17.100;2022-09-02T22:30:38;2.90;;;1.60;;
40322;SDS011;26030;51.164;17.100;2022-09-02T22:36:08;3.60;;;1.60;;
40322;SDS011;26030;51.164;17.100;2022-09-02T22:41:52;2.60;;;1.30;;
40322;SDS011;26030;51.164;17.100;2022-09-02T22:47:07;3.00;;;1.40;;
40322;SDS011;26030;51.164;17.100;2022-09-02T22:53:03;2.90;;;1.50;;
40322;SDS011;26030;51.164;17.100;2022-09-02T22:58:22;2.80;;;1.50;;
40322;SDS011;26030;51.164;17.100;2022-09-02T23:09:09;3.00;;;1.40;;
40322;SDS011;26030;51.164;17.100;2022-09-02T23:30:57;2.40;;;1.40;;
40322;SDS011;26030;51.164;17.100;2022-09-02T23:36:16;2.50;;;1.50;;
40322;SDS011;26030;51.164;17.100;2022-09-02T23:41:25;2.00;;;1.20;;
40322;SDS011;26030;51.164;17.100;2022-09-02T23:46:55;2.40;;;1.40;;
